createdAt,value
2018-03-04T00:02:34.061Z,99403.47
2018-03-04T00:07:33.787Z,99414.70
2018-03-04T00:12:28.984Z,99399.77
2018-03-04T00:17:23.380Z,99402.17
2018-03-04T00:22:20.906Z,99407.70
2018-03-04T00:27:15.262Z,99403.35
2018-03-04T00:32:09.952Z,99403.70
2018-03-04T00:37:04.276Z,99417.55
2018-03-04T00:41:58.583Z,99413.33
2018-03-04T00:46:53.030Z,99410.14
2018-03-04T00:51:47.420Z,99405.06
2018-03-04T00:56:42.787Z,99410.22
2018-03-04T01:01:37.098Z,99415.37
2018-03-04T01:06:31.510Z,99419.20
2018-03-04T01:11:25.811Z,99408.02
2018-03-04T01:16:20.376Z,99401.54
2018-03-04T01:21:14.665Z,99406.00
2018-03-04T01:26:09.821Z,99399.48
2018-03-04T01:31:05.786Z,99395.80
2018-03-04T01:36:00.121Z,99397.01
2018-03-04T01:40:55.308Z,99381.16
2018-03-04T01:45:49.633Z,99376.72
2018-03-04T01:50:44.723Z,99382.11
2018-03-04T01:55:39.057Z,99378.83
2018-03-04T02:00:34.452Z,99380.14
2018-03-04T02:05:29.143Z,99384.68
2018-03-04T02:10:23.459Z,99379.55
2018-03-04T02:15:17.797Z,99378.95
2018-03-04T02:20:12.933Z,99378.88
2018-03-04T02:25:07.243Z,99377.88
2018-03-04T02:30:01.583Z,99367.78
2018-03-04T02:34:55.893Z,99370.75
2018-03-04T02:39:50.212Z,99357.19
2018-03-04T02:44:45.337Z,99362.92
2018-03-04T02:49:40.446Z,99370.01
2018-03-04T02:54:35.109Z,99368.65
2018-03-04T02:59:29.463Z,99352.17
2018-03-04T03:04:24.912Z,99346.52
2018-03-04T03:09:19.998Z,99343.33
2018-03-04T03:14:14.375Z,99337.00
2018-03-04T03:19:08.716Z,99338.14
2018-03-04T03:24:03.956Z,99333.02
2018-03-04T03:28:59.039Z,99325.86
2018-03-04T03:33:53.374Z,99327.16
2018-03-04T03:38:48.450Z,99311.64
2018-03-04T03:43:42.921Z,99319.07
2018-03-04T03:48:37.243Z,99315.70
2018-03-04T03:53:31.562Z,99303.50
2018-03-04T03:58:26.008Z,99302.64
2018-03-04T04:03:21.186Z,99308.65
2018-03-04T04:08:15.477Z,99310.16
2018-03-04T04:13:09.800Z,99312.36
2018-03-04T04:18:04.136Z,99310.08
2018-03-04T04:22:59.239Z,99307.31
2018-03-04T04:27:54.490Z,99301.05
2018-03-04T04:32:49.317Z,99309.33
2018-03-04T04:37:43.645Z,99308.77
2018-03-04T04:42:38.784Z,99310.65
2018-03-04T04:47:33.075Z,99312.03
2018-03-04T04:52:27.717Z,99313.34
2018-03-04T04:57:22.791Z,99302.31
2018-03-04T05:02:17.101Z,99311.03
2018-03-04T05:07:11.485Z,99301.51
2018-03-04T05:12:05.772Z,99298.25
2018-03-04T05:17:00.905Z,99298.67
2018-03-04T05:21:55.233Z,99301.23
2018-03-04T05:26:49.556Z,99307.93
2018-03-04T05:31:44.625Z,99309.72
2018-03-04T05:36:38.942Z,99310.25
2018-03-04T05:41:33.281Z,99316.63
2018-03-04T05:46:28.407Z,99318.69
2018-03-04T05:51:22.710Z,99318.94
2018-03-04T05:56:17.045Z,99317.40
2018-03-04T06:01:11.362Z,99315.02
2018-03-04T06:06:05.674Z,99323.27
2018-03-04T06:11:01.611Z,99321.95
2018-03-04T06:15:55.935Z,99331.37
2018-03-04T06:20:51.025Z,99326.14
2018-03-04T06:25:46.860Z,99331.17
2018-03-04T06:30:41.187Z,99345.67
2018-03-04T06:35:36.259Z,99333.21
2018-03-04T06:40:30.820Z,99343.63
2018-03-04T06:45:25.930Z,99346.39
2018-03-04T06:50:20.421Z,99339.52
2018-03-04T06:55:14.746Z,99328.13
2018-03-04T07:00:09.843Z,99330.86
2018-03-04T07:05:04.172Z,99330.20
2018-03-04T07:09:59.264Z,99328.19
2018-03-04T07:14:53.913Z,99329.81
2018-03-04T07:19:48.372Z,99324.76
2018-03-04T07:24:43.674Z,99324.06
2018-03-04T07:29:38.053Z,99328.81
2018-03-04T07:34:32.518Z,99323.22
2018-03-04T07:39:26.835Z,99330.27
2018-03-04T07:44:22.147Z,99328.55
2018-03-04T07:49:17.224Z,99323.03
2018-03-04T07:54:11.571Z,99332.46
2018-03-04T07:59:06.651Z,99337.59
2018-03-04T08:04:01.551Z,99354.63
2018-03-04T08:08:55.870Z,99345.69
2018-03-04T08:13:50.433Z,99347.56
2018-03-04T08:18:45.525Z,99343.56
2018-03-04T08:23:40.010Z,99334.19
2018-03-04T08:28:35.350Z,99329.55
2018-03-04T08:33:29.713Z,99322.73
2018-03-04T08:38:24.124Z,99324.31
2018-03-04T08:43:18.449Z,99322.37
2018-03-04T08:48:12.774Z,99326.91
2018-03-04T08:53:08.353Z,99334.41
2018-03-04T08:58:03.086Z,99340.33
2018-03-04T09:02:57.208Z,99327.92
2018-03-04T09:07:52.295Z,99331.94
2018-03-04T09:12:46.641Z,99316.75
2018-03-04T09:17:40.947Z,99314.64
2018-03-04T09:22:36.063Z,99332.05
2018-03-04T09:27:31.157Z,99323.70
2018-03-04T09:32:25.475Z,99314.31
2018-03-04T09:37:19.795Z,99310.20
2018-03-04T09:42:14.884Z,99311.98
2018-03-04T09:47:10.162Z,99311.77
2018-03-04T09:52:04.532Z,99297.81
2018-03-04T09:56:59.391Z,99283.50
2018-03-04T10:01:53.724Z,99284.18
2018-03-04T10:06:49.654Z,99277.68
2018-03-04T10:11:44.467Z,99272.53
2018-03-04T10:16:38.792Z,99263.22
2018-03-04T10:21:33.938Z,99268.72
2018-03-04T10:26:28.312Z,99262.81
2018-03-04T10:31:23.624Z,99265.07
2018-03-04T10:36:17.971Z,99256.84
2018-03-04T10:41:12.293Z,99249.89
2018-03-04T10:46:06.727Z,99260.91
2018-03-04T10:51:01.068Z,99249.42
2018-03-04T10:55:56.188Z,99243.56
2018-03-04T11:00:56.813Z,99243.27
2018-03-04T11:05:50.949Z,99240.05
2018-03-04T11:10:45.080Z,99239.41
2018-03-04T11:15:39.602Z,99239.03
2018-03-04T11:20:33.915Z,99234.23
2018-03-04T11:25:28.232Z,99237.91
2018-03-04T11:30:23.944Z,99224.69
2018-03-04T11:35:20.864Z,99223.11
2018-03-04T11:40:15.185Z,99212.67
2018-03-04T11:45:09.775Z,99210.08
2018-03-04T11:50:05.205Z,99203.30
2018-03-04T11:54:59.850Z,99191.30
2018-03-04T11:59:54.546Z,99180.78
2018-03-04T12:04:49.062Z,99166.85
2018-03-04T12:09:43.579Z,99169.36
2018-03-04T12:14:38.239Z,99154.05
2018-03-04T12:19:33.230Z,99149.47
2018-03-04T12:24:27.753Z,99148.45
2018-03-04T12:29:22.384Z,99138.53
2018-03-04T12:34:17.089Z,99129.85
2018-03-04T12:39:11.788Z,99129.88
2018-03-04T12:44:06.261Z,99115.81
2018-03-04T12:49:01.927Z,99107.59
2018-03-04T12:53:56.247Z,99104.19
2018-03-04T12:58:50.964Z,99110.43
2018-03-04T13:03:45.556Z,99107.48
2018-03-04T13:08:40.333Z,99091.05
2018-03-04T13:13:34.184Z,99095.38
2018-03-04T13:18:28.927Z,99084.86
2018-03-04T13:23:23.259Z,99085.16
2018-03-04T13:28:17.646Z,99064.69
2018-03-04T13:33:11.972Z,99068.94
2018-03-04T13:38:06.321Z,99060.39
2018-03-04T13:43:01.398Z,99050.34
2018-03-04T13:47:56.296Z,99049.91
2018-03-04T13:52:50.625Z,99034.55
2018-03-04T13:57:45.227Z,99030.91
2018-03-04T14:02:39.571Z,99030.30
2018-03-04T14:07:34.671Z,99033.91
2018-03-04T14:12:29.042Z,99020.06
2018-03-04T14:17:23.377Z,99017.72
2018-03-04T14:22:18.168Z,99019.60
2018-03-04T14:27:12.886Z,99013.61
2018-03-04T14:32:07.390Z,99012.16
2018-03-04T14:37:01.991Z,98998.88
2018-03-04T14:41:56.327Z,98986.30
2018-03-04T14:46:51.451Z,98972.45
2018-03-04T14:51:46.003Z,98965.47
2018-03-04T14:56:40.340Z,98958.48
2018-03-04T15:01:34.758Z,98967.48
2018-03-04T15:06:29.102Z,98954.83
2018-03-04T15:11:27.203Z,98943.36
2018-03-04T15:16:21.532Z,98936.18
2018-03-04T15:21:15.872Z,98933.69
2018-03-04T15:26:10.945Z,98934.77
2018-03-04T15:31:05.277Z,98933.34
2018-03-04T15:36:00.380Z,98945.23
2018-03-04T15:41:00.649Z,98935.72
2018-03-04T15:45:56.121Z,98932.60
2018-03-04T15:50:51.005Z,98929.09
2018-03-04T15:55:45.330Z,98920.75
2018-03-04T16:00:39.641Z,98934.61
2018-03-04T16:05:34.009Z,98914.95
2018-03-04T16:10:28.453Z,98921.13
2018-03-04T16:15:22.788Z,98897.27
2018-03-04T16:20:17.124Z,98886.61
2018-03-04T16:25:11.712Z,98889.69
2018-03-04T16:30:06.821Z,98890.64
2018-03-04T16:35:02.013Z,98891.32
2018-03-04T16:39:56.335Z,98893.78
2018-03-04T16:44:50.862Z,98885.87
2018-03-04T16:49:45.947Z,98888.59
2018-03-04T16:54:40.252Z,98915.50
2018-03-04T16:59:34.698Z,98929.24
2018-03-04T17:04:29.178Z,98899.31
2018-03-04T17:09:24.415Z,98892.11
2018-03-04T17:14:19.499Z,98844.79
2018-03-04T17:19:13.796Z,98870.73
2018-03-04T17:24:08.177Z,98863.09
2018-03-04T17:29:02.496Z,98858.09
2018-03-04T17:33:57.083Z,98893.25
2018-03-04T17:38:51.631Z,98876.41
2018-03-04T17:43:46.030Z,98869.12
2018-03-04T17:48:40.358Z,98861.03
2018-03-04T17:53:35.433Z,98871.20
2018-03-04T17:58:30.475Z,98875.78
2018-03-04T18:03:26.343Z,98881.81
2018-03-04T18:08:21.598Z,98887.87
2018-03-04T18:13:16.050Z,98887.63
2018-03-04T18:18:11.157Z,98883.89
2018-03-04T18:23:07.669Z,98891.10
2018-03-04T18:28:02.098Z,98877.16
2018-03-04T18:32:56.648Z,98854.98
2018-03-04T18:37:50.834Z,98840.68
2018-03-04T18:42:46.237Z,98838.50
2018-03-04T18:47:40.683Z,98827.20
2018-03-04T18:52:36.193Z,98820.90
2018-03-04T18:57:30.519Z,98817.37
2018-03-04T19:02:24.951Z,98813.59
2018-03-04T19:07:19.441Z,98809.99
2018-03-04T19:12:13.792Z,98806.88
2018-03-04T19:17:08.971Z,98799.83
2018-03-04T19:22:03.381Z,98792.43
2018-03-04T19:26:58.043Z,98789.22
2018-03-04T19:31:52.944Z,98777.53
2018-03-04T19:36:48.800Z,98782.80
2018-03-04T19:41:44.055Z,98789.92
2018-03-04T19:46:39.010Z,98797.44
2018-03-04T19:51:34.189Z,98800.41
2018-03-04T19:56:28.697Z,98805.27
2018-03-04T20:01:23.075Z,98806.03
2018-03-04T20:06:17.576Z,98815.99
2018-03-04T20:11:13.219Z,98805.39
2018-03-04T20:16:07.560Z,98796.06
2018-03-04T20:21:02.018Z,98806.10
2018-03-04T20:25:57.153Z,98803.73
2018-03-04T20:30:51.738Z,98790.85
2018-03-04T20:35:46.815Z,98765.73
2018-03-04T20:40:41.260Z,98752.81
2018-03-04T20:45:36.995Z,98790.42
2018-03-04T20:50:34.103Z,98815.69
2018-03-04T20:55:28.683Z,98826.67
2018-03-04T21:00:23.041Z,98839.48
2018-03-04T21:05:17.370Z,98846.41
2018-03-04T21:10:11.731Z,98861.14
2018-03-04T21:15:06.117Z,98867.67
2018-03-04T21:20:00.690Z,98880.63
2018-03-04T21:24:55.171Z,98881.80
2018-03-04T21:29:51.150Z,98902.50
2018-03-04T21:34:46.513Z,98898.17
2018-03-04T21:39:40.848Z,98903.51
2018-03-04T21:44:35.967Z,98906.16
2018-03-04T21:49:31.055Z,98912.38
2018-03-04T21:54:25.844Z,98907.28
2018-03-04T21:59:20.356Z,98911.76
2018-03-04T22:04:14.724Z,98919.00
2018-03-04T22:09:09.889Z,98918.06
2018-03-04T22:14:04.299Z,98924.11
2018-03-04T22:18:58.953Z,98933.70
2018-03-04T22:23:53.589Z,98944.13
2018-03-04T22:28:47.996Z,98956.73
2018-03-04T22:33:42.299Z,98974.54
2018-03-04T22:38:36.615Z,98983.19
2018-03-04T22:43:30.944Z,98991.33
2018-03-04T22:48:25.259Z,99000.02
2018-03-04T22:53:20.411Z,99012.83
2018-03-04T22:58:14.784Z,99017.80
2018-03-04T23:03:09.954Z,99025.36
2018-03-04T23:08:06.195Z,99026.40
2018-03-04T23:13:00.529Z,99031.48
2018-03-04T23:17:54.895Z,99038.31
2018-03-04T23:22:49.208Z,99039.28
2018-03-04T23:27:43.533Z,99041.97
2018-03-04T23:32:37.904Z,99044.89
2018-03-04T23:37:32.207Z,99045.80
2018-03-04T23:42:27.438Z,99052.42
2018-03-04T23:47:21.782Z,99051.57
2018-03-04T23:52:17.457Z,99062.66
2018-03-04T23:57:12.549Z,99069.55
